Time;durP1;ratioP1;P1;durP2;ratioP2;P2;SDS_P1;SDS_P2;PMS_P1;PMS_P2;Temp;Humidity;BMP_temperature;BMP_pressure;BME280_temperature;BME280_humidity;BME280_pressure;Samples;Min_cycle;Max_cycle;Signal;HPM_P1;HPM_P2
2022/01/25 00:26:17;;;;;;;8.57;5.30;;;5.70;99.90;;;;;;5093901;28;20521;-54
2022/01/25 00:28:46;;;;;;;10.20;6.15;;;5.70;99.90;;;;;;5093550;28;20012;-52
2022/01/25 00:31:13;;;;;;;14.15;7.28;;;5.80;99.90;;;;;;5075263;28;20024;-53
2022/01/25 00:33:42;;;;;;;8.57;4.85;;;5.90;99.90;;;;;;5093359;28;20021;-55
2022/01/25 00:36:11;;;;;;;11.65;6.55;;;6.10;99.90;;;;;;5093346;28;20028;-51
2022/01/25 00:38:37;;;;;;;12.05;6.30;;;6.20;99.90;;;;;;5075468;28;20100;-57
2022/01/25 00:41:13;;;;;;;10.65;6.18;;;6.20;99.90;;;;;;5076080;28;20390;-52
2022/01/25 00:43:39;;;;;;;11.23;6.85;;;6.00;99.90;;;;;;5093582;28;20069;-53
2022/01/25 00:46:08;;;;;;;12.32;6.10;;;5.90;99.90;;;;;;5075139;28;20050;-55
2022/01/25 00:56:37;;;;;;;8.77;5.30;;;6.20;99.90;;;;;;5093770;28;20075;-52
2022/01/25 00:59:09;;;;;;;11.23;6.78;;;6.30;99.90;;;;;;5093485;28;20013;-50
2022/01/25 01:01:36;;;;;;;12.02;6.45;;;6.40;99.90;;;;;;5076010;28;20353;-50
2022/01/25 01:04:03;;;;;;;11.80;6.25;;;6.30;99.90;;;;;;5075105;28;20028;-53
2022/01/25 01:06:28;;;;;;;9.68;5.80;;;6.30;99.90;;;;;;5094022;28;20028;-54
2022/01/25 01:08:55;;;;;;;12.20;6.20;;;6.30;99.90;;;;;;5096233;28;20035;-50
2022/01/25 01:11:28;;;;;;;11.43;6.53;;;6.30;99.90;;;;;;5097678;28;20125;-53
2022/01/25 01:33:04;;;;;;;9.00;6.38;;;5.80;99.90;;;;;;5096914;28;20024;-50
2022/01/25 01:38:16;;;;;;;11.05;7.55;;;5.80;99.90;;;;;;5096795;28;20035;-53
2022/01/25 01:41:18;;;;;;;10.40;6.85;;;5.70;99.90;;;;;;5096923;28;20023;-51
2022/01/25 01:43:45;;;;;;;11.77;7.53;;;5.60;99.90;;;;;;5078433;28;20024;-51
2022/01/25 01:51:28;;;;;;;13.45;8.13;;;5.20;99.90;;;;;;5096998;28;20031;-50
2022/01/25 01:53:56;;;;;;;13.68;8.38;;;5.20;99.90;;;;;;5096608;28;20028;-50
2022/01/25 01:56:22;;;;;;;12.05;8.00;;;5.20;99.90;;;;;;5096095;28;20027;-51
2022/01/25 01:58:51;;;;;;;12.32;7.75;;;5.20;99.90;;;;;;5078067;28;20031;-52
2022/01/25 02:01:17;;;;;;;17.20;8.02;;;5.20;99.90;;;;;;5096202;28;20023;-52
2022/01/25 02:03:43;;;;;;;12.65;7.68;;;5.30;99.90;;;;;;5096100;28;20024;-49
2022/01/25 02:06:09;;;;;;;15.15;7.47;;;5.30;99.90;;;;;;5096053;28;20039;-51
2022/01/25 02:08:34;;;;;;;14.45;7.80;;;5.20;99.90;;;;;;5077933;28;20020;-49
2022/01/25 02:11:01;;;;;;;12.68;7.60;;;5.20;99.90;;;;;;5078194;28;20078;-53
2022/01/25 02:13:27;;;;;;;15.48;7.30;;;5.20;99.90;;;;;;5077675;28;20056;-50
2022/01/25 02:15:55;;;;;;;14.13;7.47;;;5.20;99.90;;;;;;5094646;28;20043;-52
2022/01/25 02:23:36;;;;;;;12.52;7.13;;;5.30;99.90;;;;;;5096358;28;20077;-51
2022/01/25 02:26:04;;;;;;;12.18;7.47;;;5.50;99.90;;;;;;5095721;28;20020;-51
2022/01/25 02:28:33;;;;;;;12.77;8.00;;;5.80;99.90;;;;;;5095754;28;20461;-51
2022/01/25 02:30:59;;;;;;;12.90;6.95;;;5.80;99.90;;;;;;5077604;28;20024;-52
2022/01/25 02:33:26;;;;;;;10.27;6.35;;;5.70;99.90;;;;;;5095785;28;20058;-52
2022/01/25 02:35:53;;;;;;;9.93;7.05;;;5.50;99.90;;;;;;5077629;28;20022;-54
2022/01/25 02:38:27;;;;;;;13.43;7.78;;;5.70;99.90;;;;;;5077289;28;20119;-52
2022/01/25 02:40:53;;;;;;;24.13;8.35;;;5.70;99.90;;;;;;5095781;28;20020;-53
2022/01/25 02:43:21;;;;;;;15.25;7.85;;;5.70;99.90;;;;;;5077591;28;20032;-51
2022/01/25 02:46:17;;;;;;;14.63;7.75;;;5.70;99.90;;;;;;5095332;28;20022;-53
2022/01/25 02:49:02;;;;;;;15.55;9.13;;;5.70;99.90;;;;;;5095130;28;20028;-50
2022/01/25 02:51:42;;;;;;;14.18;8.15;;;5.40;99.90;;;;;;5077057;28;20032;-50
2022/01/25 02:54:09;;;;;;;12.57;8.38;;;5.40;99.90;;;;;;5077027;28;20027;-53
2022/01/25 02:56:37;;;;;;;15.48;8.63;;;5.40;99.90;;;;;;5077252;28;20110;-50
2022/01/25 02:59:05;;;;;;;13.63;7.47;;;5.40;99.90;;;;;;5077827;28;20111;-51
2022/01/25 03:01:31;;;;;;;14.63;8.95;;;5.50;99.90;;;;;;5076905;28;20024;-53
2022/01/25 03:03:57;;;;;;;15.27;8.48;;;5.60;99.90;;;;;;5094936;28;20051;-52
2022/01/25 03:06:24;;;;;;;16.48;8.15;;;5.60;99.90;;;;;;5077482;28;20032;-51
2022/01/25 03:08:50;;;;;;;15.68;8.65;;;5.60;99.90;;;;;;5095196;28;20024;-50
2022/01/25 03:11:18;;;;;;;14.75;8.65;;;5.60;99.90;;;;;;5076721;28;20085;-52
2022/01/25 03:13:50;;;;;;;14.18;9.18;;;5.50;99.90;;;;;;5077535;28;20114;-53
2022/01/25 03:19:02;;;;;;;10.95;7.53;;;5.40;99.90;;;;;;5095012;28;19904;-52
2022/01/25 03:23:55;;;;;;;14.40;8.65;;;5.70;99.90;;;;;;5094607;28;20414;-55
2022/01/25 03:26:22;;;;;;;16.52;8.43;;;5.70;99.90;;;;;;5094577;28;20020;-53
2022/01/25 03:28:48;;;;;;;15.75;8.30;;;5.50;99.90;;;;;;5093654;28;20028;-52
2022/01/25 03:31:14;;;;;;;14.27;8.82;;;5.50;99.90;;;;;;5076127;28;20064;-51
2022/01/25 03:33:40;;;;;;;17.30;8.68;;;5.40;99.90;;;;;;5094186;28;20063;-52
2022/01/25 03:36:07;;;;;;;12.98;7.85;;;5.30;99.90;;;;;;5094735;28;20066;-54
2022/01/25 03:38:38;;;;;;;16.83;8.82;;;5.30;99.90;;;;;;5093006;28;20030;-51
2022/01/25 03:41:07;;;;;;;17.70;8.57;;;5.30;99.90;;;;;;5076533;28;20044;-54
2022/01/25 03:43:34;;;;;;;20.70;8.75;;;5.30;99.90;;;;;;5094154;28;20055;-52
2022/01/25 03:46:12;;;;;;;15.02;7.97;;;5.30;99.90;;;;;;5075955;28;20144;-50
2022/01/25 03:51:06;;;;;;;14.38;8.25;;;5.00;99.90;;;;;;5094312;28;20028;-53
2022/01/25 03:53:32;;;;;;;18.77;9.20;;;5.10;99.90;;;;;;5093931;28;20031;-54
2022/01/25 03:55:58;;;;;;;14.60;7.32;;;5.30;99.90;;;;;;5094241;28;20109;-57
2022/01/25 03:58:23;;;;;;;15.60;8.68;;;5.20;99.90;;;;;;5093909;28;20031;-51
2022/01/25 04:00:50;;;;;;;17.20;10.30;;;5.10;99.90;;;;;;5093783;28;20048;-52
2022/01/25 04:03:23;;;;;;;16.23;8.90;;;5.00;99.90;;;;;;5075646;28;20028;-51
2022/01/25 04:05:51;;;;;;;17.15;8.57;;;5.00;99.90;;;;;;5093774;28;20115;-51
2022/01/25 04:08:19;;;;;;;17.00;9.02;;;5.00;99.90;;;;;;5075569;28;20484;-56
2022/01/25 04:10:45;;;;;;;18.52;8.80;;;4.90;99.90;;;;;;5094268;28;20045;-52
2022/01/25 04:13:11;;;;;;;19.35;8.80;;;4.90;99.90;;;;;;5093812;28;20024;-51
2022/01/25 04:15:41;;;;;;;14.90;8.52;;;4.90;99.90;;;;;;5093894;28;20027;-53
2022/01/25 04:18:23;;;;;;;18.17;8.23;;;4.80;99.90;;;;;;5075923;28;20042;-55
2022/01/25 04:21:06;;;;;;;12.05;7.50;;;4.80;99.90;;;;;;5075398;28;20035;-52
2022/01/25 04:26:16;;;;;;;20.30;9.98;;;5.00;99.90;;;;;;5093529;28;20051;-53
2022/01/25 04:28:42;;;;;;;21.58;10.00;;;5.00;99.90;;;;;;5093725;28;20020;-53
2022/01/25 04:31:08;;;;;;;15.85;8.50;;;4.90;99.90;;;;;;5093420;28;20024;-53
2022/01/25 04:33:44;;;;;;;16.20;9.35;;;5.00;99.90;;;;;;5076069;28;20024;-53
2022/01/25 04:36:39;;;;;;;17.80;10.18;;;5.00;99.90;;;;;;5093867;28;20024;-53
2022/01/25 04:49:57;;;;;;;13.75;8.40;;;5.00;99.90;;;;;;5093583;28;20077;-56
2022/01/25 04:52:27;;;;;;;15.35;9.00;;;5.20;99.90;;;;;;5093651;28;20020;-56
2022/01/25 04:55:05;;;;;;;14.15;8.85;;;5.30;99.90;;;;;;5075426;28;20016;-51
2022/01/25 04:57:56;;;;;;;18.92;9.05;;;5.40;99.90;;;;;;5093240;28;20040;-51
2022/01/25 05:00:23;;;;;;;11.20;7.03;;;5.50;99.90;;;;;;5093485;28;20052;-54
2022/01/25 05:02:57;;;;;;;19.10;7.93;;;5.60;99.90;;;;;;5091921;28;20039;-51
2022/01/25 05:05:34;;;;;;;16.13;8.23;;;5.50;99.90;;;;;;5074919;28;20080;-51
2022/01/25 05:10:30;;;;;;;12.98;7.22;;;5.50;99.90;;;;;;5093032;28;20020;-52
2022/01/25 05:13:35;;;;;;;13.38;8.85;;;5.50;99.90;;;;;;5091649;28;20073;-51
2022/01/25 05:16:16;;;;;;;14.38;8.10;;;5.30;99.90;;;;;;5093071;28;20017;-52
2022/01/25 05:18:48;;;;;;;21.33;10.02;;;5.10;99.90;;;;;;5074901;28;20048;-50
2022/01/25 05:23:58;;;;;;;16.13;9.10;;;4.90;99.90;;;;;;5092946;28;20078;-53
2022/01/25 05:26:26;;;;;;;21.70;10.07;;;4.80;99.90;;;;;;5092806;28;20024;-53
2022/01/25 05:28:52;;;;;;;17.92;8.70;;;4.60;99.90;;;;;;5075275;28;20024;-54
2022/01/25 05:31:18;;;;;;;16.50;9.80;;;4.70;99.90;;;;;;5092796;28;20028;-50
2022/01/25 05:33:43;;;;;;;22.70;10.35;;;4.60;99.90;;;;;;5092805;28;20024;-54
2022/01/25 05:36:09;;;;;;;18.02;10.48;;;4.60;99.90;;;;;;5092898;28;20034;-50
2022/01/25 05:38:35;;;;;;;20.42;10.90;;;4.50;99.90;;;;;;5092894;28;20115;-54
2022/01/25 05:41:03;;;;;;;19.25;10.25;;;4.60;99.90;;;;;;5092706;28;20098;-50
2022/01/25 05:46:17;;;;;;;19.27;10.13;;;4.60;99.90;;;;;;5093205;28;20035;-52
2022/01/25 05:48:44;;;;;;;21.48;10.82;;;4.80;99.90;;;;;;5092613;28;20098;-53
2022/01/25 05:51:10;;;;;;;19.30;11.45;;;4.70;99.90;;;;;;5075272;28;20031;-52
2022/01/25 05:53:37;;;;;;;18.90;10.75;;;4.80;99.90;;;;;;5095315;28;20028;-54
2022/01/25 05:56:03;;;;;;;21.33;10.88;;;4.70;99.90;;;;;;5078088;28;20029;-54
2022/01/25 05:58:29;;;;;;;17.52;9.82;;;4.60;99.90;;;;;;5095998;28;20533;-54
2022/01/25 06:00:54;;;;;;;15.85;9.15;;;4.70;99.90;;;;;;5096124;28;20062;-52
2022/01/25 06:03:20;;;;;;;20.98;10.05;;;4.60;99.90;;;;;;5078172;28;20020;-51
2022/01/25 06:05:46;;;;;;;18.73;9.77;;;4.60;99.90;;;;;;5096045;28;20031;-53
2022/01/25 06:08:11;;;;;;;20.17;10.32;;;4.60;99.90;;;;;;5078165;28;20122;-52
2022/01/25 06:10:37;;;;;;;18.73;10.10;;;4.70;99.90;;;;;;5096551;28;20032;-55
2022/01/25 06:13:04;;;;;;;21.05;10.43;;;4.60;99.90;;;;;;5077745;28;20540;-53
2022/01/25 06:15:30;;;;;;;17.83;10.27;;;4.60;99.90;;;;;;5077999;28;20123;-53
2022/01/25 06:17:55;;;;;;;19.58;9.60;;;4.50;99.90;;;;;;5095771;28;20047;-50
2022/01/25 06:20:21;;;;;;;19.35;9.77;;;4.60;99.90;;;;;;5078567;28;20452;-53
2022/01/25 06:22:47;;;;;;;17.45;9.77;;;4.60;99.90;;;;;;5095861;28;20028;-51
2022/01/25 06:25:13;;;;;;;19.63;10.07;;;4.60;99.90;;;;;;5095736;28;20024;-53
2022/01/25 06:27:41;;;;;;;22.13;11.07;;;4.50;99.90;;;;;;5077550;28;20040;-52
2022/01/25 06:30:10;;;;;;;22.88;11.35;;;4.50;99.90;;;;;;5078422;28;20024;-52
2022/01/25 06:32:36;;;;;;;21.30;11.02;;;4.50;99.90;;;;;;5077777;28;20024;-50
2022/01/25 06:35:03;;;;;;;26.77;10.73;;;4.40;99.90;;;;;;5077777;28;20028;-54
2022/01/25 06:37:29;;;;;;;19.35;11.00;;;4.50;99.90;;;;;;5077194;28;20024;-54
2022/01/25 06:39:54;;;;;;;21.70;10.77;;;4.60;99.90;;;;;;5078508;28;20028;-55
2022/01/25 06:42:20;;;;;;;22.67;11.05;;;4.50;99.90;;;;;;5095424;28;20031;-51
2022/01/25 06:44:46;;;;;;;27.35;11.63;;;4.50;99.90;;;;;;5095427;28;20103;-53
2022/01/25 06:47:12;;;;;;;23.20;12.07;;;4.50;99.90;;;;;;5077167;28;20095;-57
2022/01/25 06:49:37;;;;;;;22.95;11.23;;;4.60;99.90;;;;;;5095645;28;20024;-52
2022/01/25 06:52:03;;;;;;;20.80;10.82;;;4.50;99.90;;;;;;5095794;28;20024;-52
2022/01/25 06:54:29;;;;;;;21.50;11.23;;;4.50;99.90;;;;;;5077032;28;20024;-53
2022/01/25 06:56:55;;;;;;;27.00;11.65;;;4.50;99.90;;;;;;5077309;28;20023;-54
2022/01/25 06:59:20;;;;;;;24.10;11.32;;;4.40;99.90;;;;;;5077000;28;20460;-51
2022/01/25 07:01:46;;;;;;;23.05;10.55;;;4.30;99.90;;;;;;5095379;28;20016;-53
2022/01/25 07:04:11;;;;;;;26.02;11.40;;;4.30;99.90;;;;;;5077144;28;20024;-50
2022/01/25 07:06:37;;;;;;;27.75;11.93;;;4.30;99.90;;;;;;5095214;28;20122;-50
2022/01/25 07:09:03;;;;;;;23.42;11.10;;;4.40;99.90;;;;;;5077169;28;20020;-50
2022/01/25 07:11:29;;;;;;;24.20;10.88;;;4.30;99.90;;;;;;5094871;28;20074;-49
2022/01/25 07:13:56;;;;;;;26.60;12.38;;;4.40;99.90;;;;;;5077168;28;20028;-48
2022/01/25 07:16:22;;;;;;;25.27;12.02;;;4.40;99.90;;;;;;5076548;28;20020;-48
2022/01/25 07:18:48;;;;;;;22.60;11.98;;;4.40;99.90;;;;;;5095136;28;20146;-50
2022/01/25 07:21:13;;;;;;;24.80;10.73;;;4.40;99.90;;;;;;5094766;28;20107;-54
2022/01/25 07:23:39;;;;;;;17.38;10.27;;;4.40;99.90;;;;;;5094593;28;20074;-50
2022/01/25 07:26:10;;;;;;;24.60;11.80;;;4.40;99.90;;;;;;5094620;28;20028;-52
2022/01/25 07:28:36;;;;;;;21.15;11.13;;;4.40;99.90;;;;;;5076419;28;20069;-48
2022/01/25 07:31:03;;;;;;;18.67;10.13;;;4.40;99.90;;;;;;5077424;28;20051;-51
2022/01/25 07:33:29;;;;;;;18.70;9.43;;;4.50;99.90;;;;;;5076833;28;20024;-50
2022/01/25 07:35:55;;;;;;;21.48;11.30;;;4.50;99.90;;;;;;5076370;28;20070;-49
2022/01/25 07:38:20;;;;;;;19.80;10.23;;;4.50;99.90;;;;;;5094224;28;20028;-48
2022/01/25 07:40:46;;;;;;;18.92;9.27;;;4.50;99.90;;;;;;5094322;28;20098;-50
2022/01/25 07:43:12;;;;;;;22.95;10.30;;;4.60;99.90;;;;;;5094251;28;20020;-48
2022/01/25 07:45:38;;;;;;;18.30;9.52;;;4.50;99.90;;;;;;5076017;28;20028;-49
2022/01/25 07:48:06;;;;;;;19.60;9.68;;;4.50;99.90;;;;;;5094106;28;20024;-48
2022/01/25 07:50:32;;;;;;;21.98;9.95;;;4.70;99.90;;;;;;5075927;28;20060;-53
2022/01/25 07:52:58;;;;;;;18.38;10.30;;;4.80;99.90;;;;;;5075802;28;20038;-49
2022/01/25 07:55:24;;;;;;;18.08;9.10;;;4.90;99.90;;;;;;5076012;28;20020;-48
2022/01/25 07:57:49;;;;;;;20.65;9.60;;;4.90;99.90;;;;;;5094234;28;20072;-51
2022/01/25 08:00:16;;;;;;;19.65;10.93;;;4.80;99.90;;;;;;5075861;28;20027;-52
2022/01/25 08:02:44;;;;;;;20.58;10.02;;;4.70;99.90;;;;;;5075832;28;20031;-51
2022/01/25 08:05:12;;;;;;;20.00;9.43;;;4.80;99.90;;;;;;5075726;28;20146;-52
2022/01/25 08:07:37;;;;;;;21.45;10.07;;;4.70;99.90;;;;;;5076566;28;20039;-54
2022/01/25 08:10:03;;;;;;;18.40;9.15;;;4.70;99.90;;;;;;5076295;28;20024;-48
2022/01/25 08:12:29;;;;;;;19.90;9.75;;;4.70;99.90;;;;;;5093959;28;20111;-49
2022/01/25 08:14:58;;;;;;;15.73;9.18;;;4.90;99.90;;;;;;5093245;28;20032;-53
2022/01/25 08:17:23;;;;;;;19.55;10.27;;;4.80;99.90;;;;;;5093642;28;20055;-51
2022/01/25 08:19:49;;;;;;;22.67;10.45;;;4.70;99.90;;;;;;5093758;28;20052;-52
2022/01/25 08:22:15;;;;;;;21.95;10.82;;;4.80;99.90;;;;;;5092757;28;20024;-50
2022/01/25 08:24:40;;;;;;;22.20;10.85;;;4.60;99.90;;;;;;5093898;28;20376;-49
2022/01/25 08:27:06;;;;;;;25.98;11.38;;;4.60;99.90;;;;;;5075762;28;20470;-49
2022/01/25 08:33:08;;;;;;;29.75;10.48;;;4.70;99.90;;;;;;5093420;28;20039;-49
2022/01/25 08:35:34;;;;;;;21.27;9.75;;;4.60;99.90;;;;;;5075952;28;20050;-49
2022/01/25 08:37:59;;;;;;;22.33;10.65;;;4.50;99.90;;;;;;5093632;28;20031;-48
2022/01/25 08:40:25;;;;;;;18.92;10.38;;;4.50;99.90;;;;;;5094063;28;20103;-50
2022/01/25 08:42:51;;;;;;;22.55;11.90;;;4.50;99.90;;;;;;5093396;28;20068;-51
2022/01/25 08:45:16;;;;;;;21.60;10.82;;;4.50;99.90;;;;;;5075202;28;20027;-48
2022/01/25 08:47:42;;;;;;;22.83;10.95;;;4.50;99.90;;;;;;5093254;28;20023;-47
2022/01/25 08:50:11;;;;;;;23.40;10.13;;;4.50;99.90;;;;;;5075245;28;20020;-47
2022/01/25 08:52:37;;;;;;;19.70;10.27;;;4.70;99.90;;;;;;5092956;28;20032;-51
2022/01/25 08:55:04;;;;;;;22.25;10.82;;;4.70;99.90;;;;;;5075459;28;20020;-54
2022/01/25 08:57:30;;;;;;;22.98;11.45;;;4.70;99.90;;;;;;5075012;28;20028;-52
2022/01/25 08:59:55;;;;;;;22.27;10.85;;;4.60;99.90;;;;;;5075115;28;20472;-51
2022/01/25 09:02:21;;;;;;;23.48;10.98;;;4.60;99.90;;;;;;5093167;28;20054;-50
2022/01/25 09:04:47;;;;;;;20.63;10.30;;;4.50;99.90;;;;;;5093167;28;20032;-49
2022/01/25 09:07:12;;;;;;;30.30;12.95;;;4.40;99.90;;;;;;5093342;28;20120;-51
2022/01/25 09:09:39;;;;;;;28.42;11.23;;;4.40;99.90;;;;;;5075029;28;20119;-51
2022/01/25 09:12:06;;;;;;;27.02;12.20;;;4.40;99.90;;;;;;5075203;28;20077;-51
2022/01/25 09:14:32;;;;;;;22.00;9.90;;;4.50;99.90;;;;;;5093101;28;20020;-48
2022/01/25 09:16:58;;;;;;;19.92;10.68;;;4.60;99.90;;;;;;5093277;28;20058;-50
2022/01/25 09:19:24;;;;;;;21.90;9.88;;;4.60;99.90;;;;;;5092712;28;20048;-48
2022/01/25 09:21:49;;;;;;;30.90;11.48;;;4.50;99.90;;;;;;5074985;28;20035;-49
2022/01/25 09:24:15;;;;;;;25.20;11.88;;;4.60;99.90;;;;;;5092940;28;20096;-53
2022/01/25 09:26:41;;;;;;;26.80;10.80;;;4.80;99.90;;;;;;5093135;28;20032;-50
2022/01/25 09:29:20;;;;;;;25.20;10.38;;;4.80;99.90;;;;;;5096993;28;20480;-53
2022/01/25 09:31:46;;;;;;;27.85;11.50;;;4.70;99.90;;;;;;5079306;28;20024;-49
2022/01/25 09:34:12;;;;;;;21.95;9.82;;;4.70;99.90;;;;;;5096633;28;20027;-50
2022/01/25 09:36:38;;;;;;;19.15;9.95;;;5.00;99.90;;;;;;5078551;28;20016;-51
2022/01/25 09:39:03;;;;;;;23.60;11.10;;;5.10;99.90;;;;;;5078424;28;20028;-51
2022/01/25 09:41:29;;;;;;;18.52;9.60;;;5.30;99.90;;;;;;5095853;28;20024;-55
2022/01/25 09:43:55;;;;;;;23.45;11.15;;;5.30;99.90;;;;;;5078458;28;20031;-50
2022/01/25 09:46:21;;;;;;;28.10;12.40;;;5.60;99.90;;;;;;5078308;28;20480;-49
2022/01/25 09:48:48;;;;;;;24.63;11.23;;;5.50;99.90;;;;;;5096870;28;20032;-51
2022/01/25 09:51:17;;;;;;;31.02;14.50;;;5.50;99.90;;;;;;5096421;28;20030;-50
2022/01/25 09:53:42;;;;;;;23.23;10.88;;;5.50;99.90;;;;;;5078904;28;20020;-49
2022/01/25 09:56:08;;;;;;;20.38;10.70;;;5.40;99.90;;;;;;5096587;28;20024;-48
2022/01/25 09:58:36;;;;;;;26.17;11.40;;;5.50;99.90;;;;;;5078393;28;20027;-52
2022/01/25 10:01:03;;;;;;;20.77;11.05;;;5.60;99.90;;;;;;5096166;28;20020;-50
2022/01/25 10:03:36;;;;;;;20.58;10.68;;;5.70;99.90;;;;;;5078130;28;20051;-51
2022/01/25 10:06:04;;;;;;;23.50;10.45;;;5.70;99.90;;;;;;5078182;28;20046;-52
2022/01/25 10:08:35;;;;;;;26.55;14.25;;;5.90;99.90;;;;;;5078762;28;20024;-55
2022/01/25 10:11:05;;;;;;;30.10;14.80;;;5.80;99.90;;;;;;5095170;28;20024;-51
2022/01/25 10:13:45;;;;;;;23.23;12.18;;;5.80;99.90;;;;;;5077731;28;20028;-52
2022/01/25 10:16:14;;;;;;;27.13;11.15;;;5.80;99.90;;;;;;5077828;28;20026;-52
2022/01/25 10:18:47;;;;;;;19.10;10.75;;;5.90;99.90;;;;;;5077590;28;20028;-50
2022/01/25 10:21:21;;;;;;;23.42;12.10;;;5.80;99.90;;;;;;5078592;28;20073;-50
2022/01/25 10:24:01;;;;;;;24.83;12.27;;;5.80;99.90;;;;;;5077726;28;20166;-51
2022/01/25 10:26:32;;;;;;;25.00;12.32;;;5.90;99.90;;;;;;5096395;28;20031;-55
2022/01/25 10:28:57;;;;;;;24.27;11.52;;;5.90;99.90;;;;;;5095855;28;20085;-54
2022/01/25 10:31:36;;;;;;;26.10;12.90;;;5.90;99.90;;;;;;5095680;28;20028;-53
2022/01/25 10:34:04;;;;;;;30.63;14.35;;;6.00;99.90;;;;;;5078583;28;20074;-49
2022/01/25 10:36:30;;;;;;;22.88;11.80;;;5.90;99.90;;;;;;5077472;28;20024;-51
2022/01/25 10:38:56;;;;;;;26.52;11.40;;;5.90;99.90;;;;;;5077146;28;20031;-52
2022/01/25 10:41:24;;;;;;;24.90;11.60;;;5.90;99.90;;;;;;5095999;28;20024;-55
2022/01/25 10:43:52;;;;;;;23.17;10.98;;;5.80;99.90;;;;;;5077407;28;20031;-52
2022/01/25 10:46:30;;;;;;;23.52;11.20;;;5.80;99.90;;;;;;5077533;28;20026;-52
2022/01/25 10:49:02;;;;;;;28.95;10.40;;;5.80;99.90;;;;;;5095369;28;20034;-51
2022/01/25 10:51:40;;;;;;;24.20;11.93;;;5.80;99.90;;;;;;5095341;28;20035;-53
2022/01/25 10:54:08;;;;;;;27.95;11.85;;;5.80;99.90;;;;;;5077973;28;20024;-51
2022/01/25 10:56:35;;;;;;;27.17;11.40;;;5.90;99.90;;;;;;5077768;28;20016;-52
2022/01/25 10:59:03;;;;;;;25.40;10.60;;;6.00;99.90;;;;;;5077025;28;20023;-50
2022/01/25 11:01:39;;;;;;;24.83;11.90;;;5.90;99.90;;;;;;5076967;28;20016;-51
2022/01/25 11:04:14;;;;;;;24.73;10.93;;;5.90;99.90;;;;;;5095340;28;20050;-53
2022/01/25 11:06:41;;;;;;;23.40;11.98;;;5.90;99.90;;;;;;5094964;28;20023;-52
2022/01/25 11:09:10;;;;;;;26.98;12.10;;;5.90;99.90;;;;;;5077524;28;20039;-52
2022/01/25 11:11:41;;;;;;;28.98;14.02;;;6.00;99.90;;;;;;5076992;28;20028;-52
2022/01/25 11:16:53;;;;;;;29.70;13.80;;;6.00;99.90;;;;;;5095279;28;20057;-52
2022/01/25 11:19:20;;;;;;;49.63;18.00;;;6.00;99.90;;;;;;5076602;28;20111;-51
2022/01/25 11:21:49;;;;;;;57.20;21.25;;;6.00;99.90;;;;;;5076526;28;20024;-53
2022/01/25 11:24:16;;;;;;;46.22;18.45;;;6.00;99.90;;;;;;5076453;28;20123;-52
2022/01/25 11:26:44;;;;;;;61.03;20.30;;;6.00;99.90;;;;;;5076306;28;20024;-51
2022/01/25 11:29:10;;;;;;;43.10;16.52;;;6.10;99.90;;;;;;5094468;28;20035;-50
2022/01/25 11:31:39;;;;;;;26.20;11.43;;;6.10;99.90;;;;;;5076414;28;20028;-52
2022/01/25 11:34:08;;;;;;;31.33;12.73;;;6.30;99.90;;;;;;5094471;28;20024;-52
2022/01/25 11:36:55;;;;;;;24.65;11.32;;;6.40;99.90;;;;;;5076122;28;20042;-49
2022/01/25 11:39:24;;;;;;;19.92;9.55;;;6.50;99.90;;;;;;5076545;28;20073;-50
2022/01/25 11:41:51;;;;;;;23.40;10.63;;;6.70;99.90;;;;;;5094315;28;20495;-48
2022/01/25 11:44:21;;;;;;;23.50;10.52;;;6.30;99.90;;;;;;5094270;28;20019;-48
2022/01/25 11:46:57;;;;;;;22.17;9.70;;;6.20;99.90;;;;;;5094450;28;20028;-49
2022/01/25 11:49:24;;;;;;;20.40;10.25;;;6.10;99.90;;;;;;5094319;28;20024;-52
2022/01/25 11:52:13;;;;;;;23.73;10.23;;;5.90;99.90;;;;;;5093684;28;20035;-48
2022/01/25 11:54:40;;;;;;;24.33;11.63;;;6.10;99.90;;;;;;5075936;28;20024;-48
2022/01/25 11:57:15;;;;;;;27.45;11.60;;;6.30;99.90;;;;;;5094296;28;20086;-49
2022/01/25 11:59:41;;;;;;;20.95;10.73;;;6.40;99.90;;;;;;5094617;28;20472;-48
2022/01/25 12:02:07;;;;;;;19.00;9.60;;;6.50;99.90;;;;;;5093983;28;20024;-47
2022/01/25 12:05:02;;;;;;;20.60;10.70;;;6.50;99.90;;;;;;5093915;28;20065;-53
2022/01/25 12:07:35;;;;;;;24.90;10.98;;;6.50;99.90;;;;;;5076518;28;20027;-48
2022/01/25 12:10:12;;;;;;;19.90;9.70;;;6.50;99.90;;;;;;5076517;28;20051;-48
2022/01/25 12:12:40;;;;;;;20.50;9.98;;;6.60;99.90;;;;;;5093750;28;20020;-49
2022/01/25 12:15:13;;;;;;;15.57;8.57;;;6.70;99.90;;;;;;5075701;28;20016;-52
2022/01/25 12:17:39;;;;;;;20.67;10.40;;;6.80;99.90;;;;;;5075633;28;20028;-48
2022/01/25 12:20:21;;;;;;;22.60;11.15;;;6.70;99.90;;;;;;5093736;28;20024;-48
2022/01/25 12:23:03;;;;;;;;;;;6.60;99.90;;;;;;5075967;28;20052;-47
2022/01/25 12:25:35;;;;;;;19.73;10.02;;;6.60;99.90;;;;;;5092481;28;19904;-52
2022/01/25 12:28:09;;;;;;;24.23;9.73;;;6.50;99.90;;;;;;5093556;28;20107;-47
2022/01/25 12:30:39;;;;;;;25.15;10.10;;;6.60;99.90;;;;;;5093580;28;20024;-48
2022/01/25 12:33:12;;;;;;;19.83;10.90;;;6.60;99.90;;;;;;5093389;28;20092;-49
2022/01/25 12:35:38;;;;;;;23.23;10.10;;;6.60;99.90;;;;;;5093794;28;20107;-47
2022/01/25 12:38:12;;;;;;;22.02;11.57;;;6.70;99.90;;;;;;5075454;28;20169;-50
2022/01/25 12:40:41;;;;;;;25.80;11.25;;;6.50;99.90;;;;;;5093673;28;20108;-51
2022/01/25 12:43:09;;;;;;;27.70;11.90;;;6.60;99.90;;;;;;5093321;28;20023;-51
2022/01/25 12:45:40;;;;;;;23.98;11.68;;;6.60;99.90;;;;;;5075205;28;20057;-54
2022/01/25 12:48:09;;;;;;;24.80;11.60;;;6.60;99.90;;;;;;5075196;28;20024;-54
2022/01/25 12:50:37;;;;;;;29.33;12.23;;;6.60;99.90;;;;;;5076383;28;20268;-48
2022/01/25 12:53:05;;;;;;;23.83;11.82;;;6.60;99.90;;;;;;5075067;28;20031;-49
2022/01/25 12:55:34;;;;;;;30.52;12.77;;;6.60;99.90;;;;;;5075646;28;20024;-50
2022/01/25 12:58:01;;;;;;;28.15;13.32;;;6.70;99.90;;;;;;5093226;28;20031;-47
2022/01/25 13:00:30;;;;;;;27.50;12.63;;;6.80;99.90;;;;;;5093196;28;20020;-49
2022/01/25 13:03:15;;;;;;;33.88;15.30;;;6.80;99.90;;;;;;5096992;28;20073;-49
2022/01/25 13:05:53;;;;;;;28.90;13.60;;;6.70;99.90;;;;;;5079570;28;20028;-48
2022/01/25 13:17:20;;;;;;;26.75;12.77;;;6.60;99.90;;;;;;5097053;28;20095;-49
2022/01/25 13:19:50;;;;;;;27.35;13.05;;;6.50;99.90;;;;;;5097155;28;20024;-49
2022/01/25 13:22:21;;;;;;;29.23;12.50;;;6.60;99.90;;;;;;5078814;28;20020;-50
2022/01/25 13:25:52;;;;;;;25.98;11.45;;;6.60;99.90;;;;;;5078875;28;20027;-50
2022/01/25 13:27:49;;;;;;;24.42;10.82;;;6.70;99.90;;;;;;5085761;28;20020;-48
2022/01/25 13:33:02;;;;;;;28.50;12.98;;;7.00;99.90;;;;;;5097343;28;20078;-51
2022/01/25 13:35:34;;;;;;;42.30;17.52;;;6.90;99.90;;;;;;5096831;28;20023;-54
2022/01/25 13:38:18;;;;;;;30.60;13.85;;;6.80;99.90;;;;;;5096668;28;20091;-53
2022/01/25 13:40:55;;;;;;;44.42;21.70;;;6.80;99.90;;;;;;5096748;28;20020;-50
2022/01/25 13:43:33;;;;;;;27.70;12.75;;;6.80;99.90;;;;;;5078477;28;20050;-47
2022/01/25 13:57:36;;;;;;;29.83;15.38;;;6.70;99.90;;;;;;5131911;27;20367;-55
2022/01/25 14:00:03;;;;;;;32.63;15.52;;;6.60;99.90;;;;;;5110051;28;20077;-51
2022/01/25 14:02:29;;;;;;;32.63;13.75;;;6.60;99.90;;;;;;5110916;28;20486;-50
2022/01/25 14:05:03;;;;;;;31.50;13.93;;;6.50;99.90;;;;;;5110786;28;20047;-49
2022/01/25 14:07:38;;;;;;;29.95;12.95;;;6.50;99.90;;;;;;5109490;28;20024;-49
2022/01/25 14:10:11;;;;;;;30.98;14.05;;;6.60;99.90;;;;;;5110828;28;20024;-50
2022/01/25 14:23:46;;;;;;;34.03;13.52;;;6.50;99.90;;;;;;5111126;28;20035;-51
2022/01/25 14:26:12;;;;;;;29.13;13.93;;;6.30;99.90;;;;;;5110454;28;20027;-49
2022/01/25 14:28:46;;;;;;;29.80;13.32;;;6.20;99.90;;;;;;5110383;28;20027;-54
2022/01/25 14:31:29;;;;;;;25.75;12.38;;;6.00;99.90;;;;;;5110489;28;20027;-53
2022/01/25 14:34:05;;;;;;;35.10;14.90;;;6.10;99.90;;;;;;5109104;28;20020;-51
2022/01/25 14:36:32;;;;;;;45.28;20.52;;;6.10;99.90;;;;;;5110543;28;20016;-49
2022/01/25 14:38:58;;;;;;;36.13;16.13;;;6.10;99.90;;;;;;5109836;28;20020;-52
2022/01/25 14:41:31;;;;;;;32.53;13.32;;;6.20;99.90;;;;;;5110170;28;20023;-51
2022/01/25 14:44:21;;;;;;;31.65;15.57;;;6.20;99.90;;;;;;5108976;28;20031;-56
2022/01/25 14:46:51;;;;;;;39.47;14.45;;;6.20;99.90;;;;;;5110323;28;20027;-51
2022/01/25 14:49:22;;;;;;;33.63;14.63;;;6.20;99.90;;;;;;5108683;28;20020;-53
2022/01/25 14:51:59;;;;;;;31.17;13.97;;;6.20;99.90;;;;;;5110294;28;20047;-53
2022/01/25 14:54:26;;;;;;;36.78;15.98;;;6.20;99.90;;;;;;5109779;28;20035;-56
2022/01/25 14:56:56;;;;;;;36.05;16.25;;;6.20;99.90;;;;;;5105865;28;20372;-50
2022/01/25 14:59:31;;;;;;;41.30;18.92;;;6.20;99.90;;;;;;5095372;28;20043;-50
2022/01/25 15:02:03;;;;;;;33.95;14.40;;;6.20;99.90;;;;;;5096222;28;20028;-53
2022/01/25 15:04:37;;;;;;;34.38;13.38;;;6.20;99.90;;;;;;5095042;28;20076;-49
2022/01/25 15:07:07;;;;;;;36.20;15.55;;;6.20;99.90;;;;;;5096336;28;20028;-50